sensor_id;sensor_type;location;lat;lon;timestamp;temperature;humidity
22224;DHT22;11281;52.194;21.006;2023-06-14T00:00:16;12.20;99.90
22224;DHT22;11281;52.194;21.006;2023-06-14T00:04:18;12.10;99.90
22224;DHT22;11281;52.194;21.006;2023-06-14T00:08:22;12.20;99.90
22224;DHT22;11281;52.194;21.006;2023-06-14T00:12:25;12.20;99.90
22224;DHT22;11281;52.194;21.006;2023-06-14T00:16:27;12.20;99.90
22224;DHT22;11281;52.194;21.006;2023-06-14T00:20:30;12.20;99.90
22224;DHT22;11281;52.194;21.006;2023-06-14T00:24:34;12.20;99.90
22224;DHT22;11281;52.194;21.006;2023-06-14T00:28:38;12.20;99.90
22224;DHT22;11281;52.194;21.006;2023-06-14T00:32:40;12.10;99.90
22224;DHT22;11281;52.194;21.006;2023-06-14T00:36:43;12.10;99.90
22224;DHT22;11281;52.194;21.006;2023-06-14T00:40:46;12.10;99.90
22224;DHT22;11281;52.194;21.006;2023-06-14T00:44:50;12.20;99.90
22224;DHT22;11281;52.194;21.006;2023-06-14T00:48:52;12.20;99.90
22224;DHT22;11281;52.194;21.006;2023-06-14T00:52:55;12.20;99.90
22224;DHT22;11281;52.194;21.006;2023-06-14T00:56:57;12.20;99.90
22224;DHT22;11281;52.194;21.006;2023-06-14T01:01:19;12.20;99.90
22224;DHT22;11281;52.194;21.006;2023-06-14T01:05:23;12.20;99.90
22224;DHT22;11281;52.194;21.006;2023-06-14T01:14:17;12.20;99.90
22224;DHT22;11281;52.194;21.006;2023-06-14T01:18:22;12.30;99.90
22224;DHT22;11281;52.194;21.006;2023-06-14T01:22:28;12.30;99.90
22224;DHT22;11281;52.194;21.006;2023-06-14T01:26:31;12.20;99.90
22224;DHT22;11281;52.194;21.006;2023-06-14T01:30:34;12.30;99.90
22224;DHT22;11281;52.194;21.006;2023-06-14T01:57:54;12.20;99.90
22224;DHT22;11281;52.194;21.006;2023-06-14T02:01:57;12.30;99.90
22224;DHT22;11281;52.194;21.006;2023-06-14T02:10:11;12.20;99.90
22224;DHT22;11281;52.194;21.006;2023-06-14T02:14:32;12.30;99.90
22224;DHT22;11281;52.194;21.006;2023-06-14T02:22:45;12.30;99.90
22224;DHT22;11281;52.194;21.006;2023-06-14T02:27:07;12.20;99.90
22224;DHT22;11281;52.194;21.006;2023-06-14T02:31:32;12.20;99.90
22224;DHT22;11281;52.194;21.006;2023-06-14T02:35:39;12.20;99.90
22224;DHT22;11281;52.194;21.006;2023-06-14T02:39:41;12.30;99.90
22224;DHT22;11281;52.194;21.006;2023-06-14T02:43:53;12.30;99.90
22224;DHT22;11281;52.194;21.006;2023-06-14T02:47:55;12.40;99.90
22224;DHT22;11281;52.194;21.006;2023-06-14T02:51:57;12.40;99.90
22224;DHT22;11281;52.194;21.006;2023-06-14T02:55:58;12.40;99.90
22224;DHT22;11281;52.194;21.006;2023-06-14T03:00:03;12.40;99.90
22224;DHT22;11281;52.194;21.006;2023-06-14T03:04:05;12.40;99.90
22224;DHT22;11281;52.194;21.006;2023-06-14T03:08:06;12.50;99.90
22224;DHT22;11281;52.194;21.006;2023-06-14T03:12:08;12.50;99.90
22224;DHT22;11281;52.194;21.006;2023-06-14T03:16:11;12.60;99.90
22224;DHT22;11281;52.194;21.006;2023-06-14T03:20:12;12.60;99.90
22224;DHT22;11281;52.194;21.006;2023-06-14T03:24:14;12.60;99.90
22224;DHT22;11281;52.194;21.006;2023-06-14T03:28:18;12.70;99.90
22224;DHT22;11281;52.194;21.006;2023-06-14T03:32:19;12.60;99.90
22224;DHT22;11281;52.194;21.006;2023-06-14T03:36:21;12.60;99.90
22224;DHT22;11281;52.194;21.006;2023-06-14T03:40:24;12.60;99.90
22224;DHT22;11281;52.194;21.006;2023-06-14T03:44:26;12.70;99.90
22224;DHT22;11281;52.194;21.006;2023-06-14T03:48:28;12.70;99.90
22224;DHT22;11281;52.194;21.006;2023-06-14T03:52:34;12.70;99.90
22224;DHT22;11281;52.194;21.006;2023-06-14T03:56:55;12.70;99.90
22224;DHT22;11281;52.194;21.006;2023-06-14T04:00:57;12.80;99.90
22224;DHT22;11281;52.194;21.006;2023-06-14T04:05:00;12.80;99.90
22224;DHT22;11281;52.194;21.006;2023-06-14T04:09:01;12.90;99.90
22224;DHT22;11281;52.194;21.006;2023-06-14T04:13:04;12.90;99.90
22224;DHT22;11281;52.194;21.006;2023-06-14T04:17:06;13.00;99.90
22224;DHT22;11281;52.194;21.006;2023-06-14T04:21:08;13.10;99.90
22224;DHT22;11281;52.194;21.006;2023-06-14T04:25:09;13.10;99.90
22224;DHT22;11281;52.194;21.006;2023-06-14T04:29:11;13.20;99.90
22224;DHT22;11281;52.194;21.006;2023-06-14T04:33:17;13.20;99.90
22224;DHT22;11281;52.194;21.006;2023-06-14T04:37:22;13.30;99.90
22224;DHT22;11281;52.194;21.006;2023-06-14T04:41:24;13.40;99.90
22224;DHT22;11281;52.194;21.006;2023-06-14T04:45:32;13.40;99.90
22224;DHT22;11281;52.194;21.006;2023-06-14T04:49:33;13.50;99.90
22224;DHT22;11281;52.194;21.006;2023-06-14T04:53:36;13.40;99.90
22224;DHT22;11281;52.194;21.006;2023-06-14T04:57:37;13.50;99.90
22224;DHT22;11281;52.194;21.006;2023-06-14T05:01:40;13.60;99.90
22224;DHT22;11281;52.194;21.006;2023-06-14T05:05:42;13.70;99.90
22224;DHT22;11281;52.194;21.006;2023-06-14T05:09:44;13.80;99.90
22224;DHT22;11281;52.194;21.006;2023-06-14T05:13:46;13.80;99.90
22224;DHT22;11281;52.194;21.006;2023-06-14T05:17:47;13.90;99.90
22224;DHT22;11281;52.194;21.006;2023-06-14T05:21:55;14.00;99.90
22224;DHT22;11281;52.194;21.006;2023-06-14T05:25:57;14.10;99.90
22224;DHT22;11281;52.194;21.006;2023-06-14T05:29:59;14.20;99.90
22224;DHT22;11281;52.194;21.006;2023-06-14T05:34:01;14.30;99.90
22224;DHT22;11281;52.194;21.006;2023-06-14T05:38:03;14.40;99.90
22224;DHT22;11281;52.194;21.006;2023-06-14T05:42:05;14.50;99.90
22224;DHT22;11281;52.194;21.006;2023-06-14T05:46:07;14.50;99.90
22224;DHT22;11281;52.194;21.006;2023-06-14T05:50:09;14.60;99.90
22224;DHT22;11281;52.194;21.006;2023-06-14T05:54:11;14.60;99.90
22224;DHT22;11281;52.194;21.006;2023-06-14T05:58:13;14.70;99.90
22224;DHT22;11281;52.194;21.006;2023-06-14T06:02:14;14.80;99.90
22224;DHT22;11281;52.194;21.006;2023-06-14T06:06:16;14.90;99.90
22224;DHT22;11281;52.194;21.006;2023-06-14T06:10:18;14.90;99.90
22224;DHT22;11281;52.194;21.006;2023-06-14T06:14:19;14.80;99.90
22224;DHT22;11281;52.194;21.006;2023-06-14T06:18:21;14.70;99.90
22224;DHT22;11281;52.194;21.006;2023-06-14T06:22:22;14.60;99.90
22224;DHT22;11281;52.194;21.006;2023-06-14T06:26:24;14.60;99.90
22224;DHT22;11281;52.194;21.006;2023-06-14T06:30:27;14.70;99.90
22224;DHT22;11281;52.194;21.006;2023-06-14T06:34:29;14.70;99.90
22224;DHT22;11281;52.194;21.006;2023-06-14T06:38:30;14.70;99.90
22224;DHT22;11281;52.194;21.006;2023-06-14T06:42:32;14.70;99.90
22224;DHT22;11281;52.194;21.006;2023-06-14T06:46:34;14.70;99.90
22224;DHT22;11281;52.194;21.006;2023-06-14T06:50:36;14.70;99.90
22224;DHT22;11281;52.194;21.006;2023-06-14T06:54:38;14.70;99.90
22224;DHT22;11281;52.194;21.006;2023-06-14T06:58:40;14.80;99.90
22224;DHT22;11281;52.194;21.006;2023-06-14T07:02:42;14.90;99.90
22224;DHT22;11281;52.194;21.006;2023-06-14T07:06:44;15.00;99.90
22224;DHT22;11281;52.194;21.006;2023-06-14T07:10:48;15.10;99.90
22224;DHT22;11281;52.194;21.006;2023-06-14T07:14:50;15.40;99.90
22224;DHT22;11281;52.194;21.006;2023-06-14T07:18:51;15.60;99.90
22224;DHT22;11281;52.194;21.006;2023-06-14T07:22:53;15.90;99.90
22224;DHT22;11281;52.194;21.006;2023-06-14T07:26:55;16.20;99.90
22224;DHT22;11281;52.194;21.006;2023-06-14T07:30:57;16.20;99.90
22224;DHT22;11281;52.194;21.006;2023-06-14T07:34:59;16.50;99.90
22224;DHT22;11281;52.194;21.006;2023-06-14T07:39:00;16.40;99.90
22224;DHT22;11281;52.194;21.006;2023-06-14T07:43:05;16.40;99.90
22224;DHT22;11281;52.194;21.006;2023-06-14T07:47:07;16.60;99.90
22224;DHT22;11281;52.194;21.006;2023-06-14T07:51:09;16.70;99.90
22224;DHT22;11281;52.194;21.006;2023-06-14T07:55:11;17.00;99.90
22224;DHT22;11281;52.194;21.006;2023-06-14T07:59:12;17.00;99.90
22224;DHT22;11281;52.194;21.006;2023-06-14T08:03:14;16.90;99.90
22224;DHT22;11281;52.194;21.006;2023-06-14T08:07:15;16.80;99.90
22224;DHT22;11281;52.194;21.006;2023-06-14T08:11:17;16.80;99.90
22224;DHT22;11281;52.194;21.006;2023-06-14T08:15:19;16.90;99.90
22224;DHT22;11281;52.194;21.006;2023-06-14T08:19:20;17.20;99.90
22224;DHT22;11281;52.194;21.006;2023-06-14T08:23:22;17.00;99.90
22224;DHT22;11281;52.194;21.006;2023-06-14T08:27:24;17.00;99.90
22224;DHT22;11281;52.194;21.006;2023-06-14T08:31:26;17.00;99.90
22224;DHT22;11281;52.194;21.006;2023-06-14T08:35:28;16.80;99.90
22224;DHT22;11281;52.194;21.006;2023-06-14T08:39:30;16.90;99.90
22224;DHT22;11281;52.194;21.006;2023-06-14T08:43:33;16.80;99.90
22224;DHT22;11281;52.194;21.006;2023-06-14T08:47:35;16.90;99.90
22224;DHT22;11281;52.194;21.006;2023-06-14T08:51:38;16.80;99.90
22224;DHT22;11281;52.194;21.006;2023-06-14T08:55:41;16.60;99.90
22224;DHT22;11281;52.194;21.006;2023-06-14T08:59:47;16.50;99.90
22224;DHT22;11281;52.194;21.006;2023-06-14T09:03:54;16.50;99.90
22224;DHT22;11281;52.194;21.006;2023-06-14T09:07:58;16.30;99.90
22224;DHT22;11281;52.194;21.006;2023-06-14T09:12:02;16.10;99.90
22224;DHT22;11281;52.194;21.006;2023-06-14T09:16:04;16.30;99.90
22224;DHT22;11281;52.194;21.006;2023-06-14T09:20:08;16.40;99.90
22224;DHT22;11281;52.194;21.006;2023-06-14T09:24:19;16.40;99.90
22224;DHT22;11281;52.194;21.006;2023-06-14T09:28:27;16.50;99.90
22224;DHT22;11281;52.194;21.006;2023-06-14T09:32:29;16.60;99.90
22224;DHT22;11281;52.194;21.006;2023-06-14T09:36:32;16.60;99.90
22224;DHT22;11281;52.194;21.006;2023-06-14T09:40:35;16.60;99.90
22224;DHT22;11281;52.194;21.006;2023-06-14T09:44:39;16.60;99.90
22224;DHT22;11281;52.194;21.006;2023-06-14T09:48:41;16.70;99.90
22224;DHT22;11281;52.194;21.006;2023-06-14T09:52:44;16.70;99.90
22224;DHT22;11281;52.194;21.006;2023-06-14T09:56:48;16.80;99.90
22224;DHT22;11281;52.194;21.006;2023-06-14T10:00:53;16.90;99.90
22224;DHT22;11281;52.194;21.006;2023-06-14T10:05:04;17.00;99.90
22224;DHT22;11281;52.194;21.006;2023-06-14T10:09:10;17.20;99.90
22224;DHT22;11281;52.194;21.006;2023-06-14T10:13:12;17.30;99.90
22224;DHT22;11281;52.194;21.006;2023-06-14T10:17:25;17.30;99.90
22224;DHT22;11281;52.194;21.006;2023-06-14T10:26:03;17.10;99.90
22224;DHT22;11281;52.194;21.006;2023-06-14T10:30:07;17.30;99.90
22224;DHT22;11281;52.194;21.006;2023-06-14T10:34:10;17.60;99.90
22224;DHT22;11281;52.194;21.006;2023-06-14T10:38:13;17.90;99.90
22224;DHT22;11281;52.194;21.006;2023-06-14T10:42:15;17.90;99.90
22224;DHT22;11281;52.194;21.006;2023-06-14T10:46:20;17.90;99.90
22224;DHT22;11281;52.194;21.006;2023-06-14T10:50:28;17.80;99.90
22224;DHT22;11281;52.194;21.006;2023-06-14T10:54:30;17.70;99.90
22224;DHT22;11281;52.194;21.006;2023-06-14T10:58:32;17.70;99.90
22224;DHT22;11281;52.194;21.006;2023-06-14T11:07:38;17.70;99.90
22224;DHT22;11281;52.194;21.006;2023-06-14T11:11:48;17.90;99.90
22224;DHT22;11281;52.194;21.006;2023-06-14T11:15:50;18.20;99.90
22224;DHT22;11281;52.194;21.006;2023-06-14T11:20:13;18.20;99.90
22224;DHT22;11281;52.194;21.006;2023-06-14T11:24:18;18.60;99.90
22224;DHT22;11281;52.194;21.006;2023-06-14T11:28:19;18.50;99.90
22224;DHT22;11281;52.194;21.006;2023-06-14T11:32:22;18.40;99.90
22224;DHT22;11281;52.194;21.006;2023-06-14T11:36:31;18.60;99.90
22224;DHT22;11281;52.194;21.006;2023-06-14T11:40:34;19.10;99.90
22224;DHT22;11281;52.194;21.006;2023-06-14T11:44:35;18.80;99.90
22224;DHT22;11281;52.194;21.006;2023-06-14T11:48:42;18.60;99.90
22224;DHT22;11281;52.194;21.006;2023-06-14T11:52:55;18.50;99.90
22224;DHT22;11281;52.194;21.006;2023-06-14T11:56:58;18.30;99.90
22224;DHT22;11281;52.194;21.006;2023-06-14T12:00:59;18.30;99.90
22224;DHT22;11281;52.194;21.006;2023-06-14T12:05:05;18.10;99.90
22224;DHT22;11281;52.194;21.006;2023-06-14T12:09:09;18.30;99.90
22224;DHT22;11281;52.194;21.006;2023-06-14T12:13:17;18.30;99.90
22224;DHT22;11281;52.194;21.006;2023-06-14T12:17:20;18.30;99.90
22224;DHT22;11281;52.194;21.006;2023-06-14T12:21:23;18.50;99.90
22224;DHT22;11281;52.194;21.006;2023-06-14T12:25:35;18.90;99.90
22224;DHT22;11281;52.194;21.006;2023-06-14T12:29:37;18.90;99.90
22224;DHT22;11281;52.194;21.006;2023-06-14T12:33:40;18.90;99.90
22224;DHT22;11281;52.194;21.006;2023-06-14T12:37:42;18.80;99.90
22224;DHT22;11281;52.194;21.006;2023-06-14T12:41:44;18.60;99.90
22224;DHT22;11281;52.194;21.006;2023-06-14T12:45:46;18.40;99.90
22224;DHT22;11281;52.194;21.006;2023-06-14T12:49:48;18.30;99.90
22224;DHT22;11281;52.194;21.006;2023-06-14T12:53:50;18.20;99.90
22224;DHT22;11281;52.194;21.006;2023-06-14T12:57:52;18.00;99.90
22224;DHT22;11281;52.194;21.006;2023-06-14T13:01:54;18.90;99.90
22224;DHT22;11281;52.194;21.006;2023-06-14T13:05:56;19.30;99.90
22224;DHT22;11281;52.194;21.006;2023-06-14T13:09:58;19.70;99.90
22224;DHT22;11281;52.194;21.006;2023-06-14T13:13:59;19.70;99.90
22224;DHT22;11281;52.194;21.006;2023-06-14T13:18:02;19.30;99.90
22224;DHT22;11281;52.194;21.006;2023-06-14T13:22:04;19.10;99.90
22224;DHT22;11281;52.194;21.006;2023-06-14T13:26:06;18.50;99.90
22224;DHT22;11281;52.194;21.006;2023-06-14T13:30:08;18.50;99.90
22224;DHT22;11281;52.194;21.006;2023-06-14T13:34:10;18.90;99.90
22224;DHT22;11281;52.194;21.006;2023-06-14T13:38:12;18.90;99.90
22224;DHT22;11281;52.194;21.006;2023-06-14T13:42:13;19.00;99.90
22224;DHT22;11281;52.194;21.006;2023-06-14T13:46:15;19.30;99.90
22224;DHT22;11281;52.194;21.006;2023-06-14T13:50:17;18.50;99.90
22224;DHT22;11281;52.194;21.006;2023-06-14T13:54:21;18.10;99.90
22224;DHT22;11281;52.194;21.006;2023-06-14T13:58:23;18.90;99.90
22224;DHT22;11281;52.194;21.006;2023-06-14T14:02:25;18.40;99.90
22224;DHT22;11281;52.194;21.006;2023-06-14T14:06:27;18.10;99.90
22224;DHT22;11281;52.194;21.006;2023-06-14T14:10:29;18.30;99.90
22224;DHT22;11281;52.194;21.006;2023-06-14T14:14:34;18.50;99.90
22224;DHT22;11281;52.194;21.006;2023-06-14T14:18:36;18.40;99.90
22224;DHT22;11281;52.194;21.006;2023-06-14T14:22:39;18.40;99.90
22224;DHT22;11281;52.194;21.006;2023-06-14T14:26:42;18.90;99.90
22224;DHT22;11281;52.194;21.006;2023-06-14T14:30:43;19.40;99.90
22224;DHT22;11281;52.194;21.006;2023-06-14T14:34:45;19.00;99.90
22224;DHT22;11281;52.194;21.006;2023-06-14T14:38:46;19.40;99.90
22224;DHT22;11281;52.194;21.006;2023-06-14T14:42:48;19.90;99.90
22224;DHT22;11281;52.194;21.006;2023-06-14T14:46:50;19.70;99.90
22224;DHT22;11281;52.194;21.006;2023-06-14T14:50:52;19.70;99.90
22224;DHT22;11281;52.194;21.006;2023-06-14T14:54:54;19.40;99.90
22224;DHT22;11281;52.194;21.006;2023-06-14T14:58:56;18.90;99.90
22224;DHT22;11281;52.194;21.006;2023-06-14T15:02:58;18.40;99.90
22224;DHT22;11281;52.194;21.006;2023-06-14T15:07:00;18.20;99.90
22224;DHT22;11281;52.194;21.006;2023-06-14T15:11:02;18.40;99.90
22224;DHT22;11281;52.194;21.006;2023-06-14T15:15:04;18.50;99.90
22224;DHT22;11281;52.194;21.006;2023-06-14T15:19:05;18.90;99.90
22224;DHT22;11281;52.194;21.006;2023-06-14T15:23:07;18.90;99.90
22224;DHT22;11281;52.194;21.006;2023-06-14T15:27:09;18.80;99.90
22224;DHT22;11281;52.194;21.006;2023-06-14T15:31:12;18.60;99.90
22224;DHT22;11281;52.194;21.006;2023-06-14T15:35:16;18.60;99.90
22224;DHT22;11281;52.194;21.006;2023-06-14T15:39:18;18.60;99.90
22224;DHT22;11281;52.194;21.006;2023-06-14T15:43:20;18.30;99.90
22224;DHT22;11281;52.194;21.006;2023-06-14T15:47:24;18.20;99.90
22224;DHT22;11281;52.194;21.006;2023-06-14T15:51:25;18.20;99.90
22224;DHT22;11281;52.194;21.006;2023-06-14T15:55:27;18.40;99.90
22224;DHT22;11281;52.194;21.006;2023-06-14T15:59:29;18.60;99.90
22224;DHT22;11281;52.194;21.006;2023-06-14T16:03:31;18.70;99.90
22224;DHT22;11281;52.194;21.006;2023-06-14T16:07:33;18.60;99.90
22224;DHT22;11281;52.194;21.006;2023-06-14T16:11:35;18.30;99.90
22224;DHT22;11281;52.194;21.006;2023-06-14T16:15:37;18.20;99.90
22224;DHT22;11281;52.194;21.006;2023-06-14T16:19:39;18.20;99.90
22224;DHT22;11281;52.194;21.006;2023-06-14T16:23:41;18.10;99.90
22224;DHT22;11281;52.194;21.006;2023-06-14T16:27:43;17.80;99.90
22224;DHT22;11281;52.194;21.006;2023-06-14T16:31:45;17.80;99.90
22224;DHT22;11281;52.194;21.006;2023-06-14T16:35:47;17.80;99.90
22224;DHT22;11281;52.194;21.006;2023-06-14T16:39:49;17.80;99.90
22224;DHT22;11281;52.194;21.006;2023-06-14T16:43:50;17.70;99.90
22224;DHT22;11281;52.194;21.006;2023-06-14T16:47:52;17.60;99.90
22224;DHT22;11281;52.194;21.006;2023-06-14T16:51:54;17.60;99.90
22224;DHT22;11281;52.194;21.006;2023-06-14T16:55:55;17.70;99.90
22224;DHT22;11281;52.194;21.006;2023-06-14T16:59:57;17.80;99.90
22224;DHT22;11281;52.194;21.006;2023-06-14T17:03:59;17.60;99.90
22224;DHT22;11281;52.194;21.006;2023-06-14T17:08:01;17.60;99.90
22224;DHT22;11281;52.194;21.006;2023-06-14T17:12:04;17.50;99.90
22224;DHT22;11281;52.194;21.006;2023-06-14T17:16:06;17.30;99.90
22224;DHT22;11281;52.194;21.006;2023-06-14T17:20:09;17.30;99.90
22224;DHT22;11281;52.194;21.006;2023-06-14T17:24:10;17.20;99.90
22224;DHT22;11281;52.194;21.006;2023-06-14T17:28:12;17.10;99.90
22224;DHT22;11281;52.194;21.006;2023-06-14T17:32:14;17.00;99.90
22224;DHT22;11281;52.194;21.006;2023-06-14T17:36:16;17.00;99.90
22224;DHT22;11281;52.194;21.006;2023-06-14T17:40:18;16.90;99.90
22224;DHT22;11281;52.194;21.006;2023-06-14T17:44:20;16.90;99.90
22224;DHT22;11281;52.194;21.006;2023-06-14T17:48:22;16.80;99.90
22224;DHT22;11281;52.194;21.006;2023-06-14T17:52:24;16.70;99.90
22224;DHT22;11281;52.194;21.006;2023-06-14T17:56:27;16.60;99.90
22224;DHT22;11281;52.194;21.006;2023-06-14T18:00:28;16.50;99.90
22224;DHT22;11281;52.194;21.006;2023-06-14T18:04:30;16.40;99.90
22224;DHT22;11281;52.194;21.006;2023-06-14T18:08:32;16.40;99.90
22224;DHT22;11281;52.194;21.006;2023-06-14T18:12:34;16.30;99.90
22224;DHT22;11281;52.194;21.006;2023-06-14T18:16:36;16.20;99.90
22224;DHT22;11281;52.194;21.006;2023-06-14T18:20:38;16.20;99.90
22224;DHT22;11281;52.194;21.006;2023-06-14T18:24:40;16.10;99.90
22224;DHT22;11281;52.194;21.006;2023-06-14T18:28:41;16.00;99.90
22224;DHT22;11281;52.194;21.006;2023-06-14T18:32:43;16.00;99.90
22224;DHT22;11281;52.194;21.006;2023-06-14T18:36:48;16.00;99.90
22224;DHT22;11281;52.194;21.006;2023-06-14T18:40:50;15.90;99.90
22224;DHT22;11281;52.194;21.006;2023-06-14T18:44:52;15.90;99.90
22224;DHT22;11281;52.194;21.006;2023-06-14T18:48:54;15.90;99.90
22224;DHT22;11281;52.194;21.006;2023-06-14T18:52:56;15.80;99.90
22224;DHT22;11281;52.194;21.006;2023-06-14T18:56:57;15.90;99.90
22224;DHT22;11281;52.194;21.006;2023-06-14T19:00:59;15.80;99.90
22224;DHT22;11281;52.194;21.006;2023-06-14T19:05:01;15.70;99.90
22224;DHT22;11281;52.194;21.006;2023-06-14T19:09:06;15.70;99.90
22224;DHT22;11281;52.194;21.006;2023-06-14T19:13:07;15.60;99.90
22224;DHT22;11281;52.194;21.006;2023-06-14T19:17:12;15.50;99.90
22224;DHT22;11281;52.194;21.006;2023-06-14T19:21:13;15.50;99.90
22224;DHT22;11281;52.194;21.006;2023-06-14T19:25:15;15.30;99.90
22224;DHT22;11281;52.194;21.006;2023-06-14T19:29:17;15.30;99.90
22224;DHT22;11281;52.194;21.006;2023-06-14T19:33:18;15.30;99.90
22224;DHT22;11281;52.194;21.006;2023-06-14T19:37:20;15.30;99.90
22224;DHT22;11281;52.194;21.006;2023-06-14T19:41:22;15.00;99.90
22224;DHT22;11281;52.194;21.006;2023-06-14T19:45:25;15.00;99.90
22224;DHT22;11281;52.194;21.006;2023-06-14T19:49:27;14.90;99.90
22224;DHT22;11281;52.194;21.006;2023-06-14T19:53:29;15.00;99.90
22224;DHT22;11281;52.194;21.006;2023-06-14T19:57:32;14.90;99.90
22224;DHT22;11281;52.194;21.006;2023-06-14T20:01:34;15.00;99.90
22224;DHT22;11281;52.194;21.006;2023-06-14T20:05:36;14.90;99.90
22224;DHT22;11281;52.194;21.006;2023-06-14T20:09:39;14.90;99.90
22224;DHT22;11281;52.194;21.006;2023-06-14T20:13:40;14.90;99.90
22224;DHT22;11281;52.194;21.006;2023-06-14T20:17:43;14.80;99.90
22224;DHT22;11281;52.194;21.006;2023-06-14T20:21:44;14.70;99.90
22224;DHT22;11281;52.194;21.006;2023-06-14T20:25:46;14.70;99.90
22224;DHT22;11281;52.194;21.006;2023-06-14T20:29:51;14.60;99.90
22224;DHT22;11281;52.194;21.006;2023-06-14T20:33:54;14.60;99.90
22224;DHT22;11281;52.194;21.006;2023-06-14T20:37:56;14.60;99.90
22224;DHT22;11281;52.194;21.006;2023-06-14T20:41:57;14.60;99.90
22224;DHT22;11281;52.194;21.006;2023-06-14T20:45:59;14.50;99.90
22224;DHT22;11281;52.194;21.006;2023-06-14T20:50:01;14.50;99.90
22224;DHT22;11281;52.194;21.006;2023-06-14T20:54:04;14.40;99.90
22224;DHT22;11281;52.194;21.006;2023-06-14T20:58:05;14.30;99.90
22224;DHT22;11281;52.194;21.006;2023-06-14T21:02:08;14.30;99.90
22224;DHT22;11281;52.194;21.006;2023-06-14T21:06:14;14.20;99.90
22224;DHT22;11281;52.194;21.006;2023-06-14T21:10:16;14.10;99.90
22224;DHT22;11281;52.194;21.006;2023-06-14T21:14:17;14.10;99.90
22224;DHT22;11281;52.194;21.006;2023-06-14T21:18:21;14.00;99.90
22224;DHT22;11281;52.194;21.006;2023-06-14T21:22:23;14.10;99.90
22224;DHT22;11281;52.194;21.006;2023-06-14T21:26:27;13.90;99.90
22224;DHT22;11281;52.194;21.006;2023-06-14T21:30:35;13.90;99.90
22224;DHT22;11281;52.194;21.006;2023-06-14T21:34:37;13.80;99.90
22224;DHT22;11281;52.194;21.006;2023-06-14T21:38:41;13.60;99.90
22224;DHT22;11281;52.194;21.006;2023-06-14T21:42:46;13.60;99.90
22224;DHT22;11281;52.194;21.006;2023-06-14T21:46:47;13.50;99.90
22224;DHT22;11281;52.194;21.006;2023-06-14T21:50:49;13.40;99.90
22224;DHT22;11281;52.194;21.006;2023-06-14T21:54:54;13.30;99.90
22224;DHT22;11281;52.194;21.006;2023-06-14T21:58:59;13.30;99.90
22224;DHT22;11281;52.194;21.006;2023-06-14T22:03:01;13.20;99.90
22224;DHT22;11281;52.194;21.006;2023-06-14T22:07:04;13.10;99.90
22224;DHT22;11281;52.194;21.006;2023-06-14T22:11:07;12.90;99.90
22224;DHT22;11281;52.194;21.006;2023-06-14T22:15:10;12.80;99.90
22224;DHT22;11281;52.194;21.006;2023-06-14T22:19:13;12.70;99.90
22224;DHT22;11281;52.194;21.006;2023-06-14T22:23:16;12.80;99.90
22224;DHT22;11281;52.194;21.006;2023-06-14T22:27:17;12.70;99.90
22224;DHT22;11281;52.194;21.006;2023-06-14T22:31:21;12.80;99.90
22224;DHT22;11281;52.194;21.006;2023-06-14T22:35:23;12.80;99.90
22224;DHT22;11281;52.194;21.006;2023-06-14T22:39:25;12.80;99.90
22224;DHT22;11281;52.194;21.006;2023-06-14T22:43:26;12.80;99.90
22224;DHT22;11281;52.194;21.006;2023-06-14T22:47:28;12.80;99.90
22224;DHT22;11281;52.194;21.006;2023-06-14T22:51:30;12.60;99.90
22224;DHT22;11281;52.194;21.006;2023-06-14T22:55:32;12.50;99.90
22224;DHT22;11281;52.194;21.006;2023-06-14T22:59:33;12.50;99.90
22224;DHT22;11281;52.194;21.006;2023-06-14T23:03:35;12.40;99.90
22224;DHT22;11281;52.194;21.006;2023-06-14T23:07:37;12.30;99.90
22224;DHT22;11281;52.194;21.006;2023-06-14T23:11:40;12.30;99.90
22224;DHT22;11281;52.194;21.006;2023-06-14T23:15:43;12.40;99.90
22224;DHT22;11281;52.194;21.006;2023-06-14T23:19:45;12.30;99.90
22224;DHT22;11281;52.194;21.006;2023-06-14T23:23:47;12.40;99.90
22224;DHT22;11281;52.194;21.006;2023-06-14T23:27:51;12.30;99.90
22224;DHT22;11281;52.194;21.006;2023-06-14T23:31:56;12.50;99.90
22224;DHT22;11281;52.194;21.006;2023-06-14T23:36:00;12.50;99.90
22224;DHT22;11281;52.194;21.006;2023-06-14T23:40:05;12.60;99.90
22224;DHT22;11281;52.194;21.006;2023-06-14T23:44:11;12.70;99.90
22224;DHT22;11281;52.194;21.006;2023-06-14T23:48:23;12.80;99.90
22224;DHT22;11281;52.194;21.006;2023-06-14T23:52:30;12.90;99.90
22224;DHT22;11281;52.194;21.006;2023-06-14T23:56:33;12.80;99.90
